<?xml version="1.0" encoding="UTF-8" standalone="no" ?>
<gpx xmlns="http://www.topografix.com/GPX/1/1" xmlns:xsi="http://www.w3.org/2001/XMLSchema-instance" xsi:schemaLocation="http://www.topografix.com/GPX/1/1 http://www.topografix.com/GPX/1/1/gpx.xsd" version="1.1" creator="VisuGPX - https://www.visugpx.com">
  <metadata>
    <name>Liaison 2 : Préveranges - Sidiailles (La Croix Cordeau)</name>
    <desc><![CDATA[Sentier des Maitres Sonneurs. Liaison 2 : Préveranges - Sidiailles [i](La Croix Cordeau)[/i]

Liaison 2 Préveranges la Croix cordeau permettant la boucle Bocage Bourbonnais]]></desc>
  </metadata>
  <wpt lat="46.43331" lon="2.25096">
    <ele>420</ele>
    <name><![CDATA[Point de passage 1]]></name>
    <type><![CDATA[GENERIC]]></type>
  </wpt>
  <wpt lat="46.48581" lon="2.3112">
    <ele>345</ele>
    <name><![CDATA[Point de passage 2]]></name>
    <type><![CDATA[GENERIC]]></type>
  </wpt>
  <trk>
    <name><![CDATA[Liaison 2 : Préveranges - Sidiailles (La Croix Cordeau)]]></name>
    <trkseg>
      <trkpt lat="46.43331" lon="2.25096">
        <ele>420</ele>
        <time>2025-08-07T13:26:13.000Z</time>
      </trkpt>
      <trkpt lat="46.43347" lon="2.25094">
        <ele>418</ele>
        <time>2025-08-07T13:26:32.000Z</time>
      </trkpt>
      <trkpt lat="46.43358" lon="2.25094">
        <ele>418</ele>
        <time>2025-08-07T13:26:44.000Z</time>
      </trkpt>
      <trkpt lat="46.43373" lon="2.25099">
        <ele>417</ele>
        <time>2025-08-07T13:27:01.000Z</time>
      </trkpt>
      <trkpt lat="46.43392" lon="2.25174">
        <ele>416</ele>
        <time>2025-08-07T13:28:04.000Z</time>
      </trkpt>
      <trkpt lat="46.43384" lon="2.25205">
        <ele>416</ele>
        <time>2025-08-07T13:28:30.000Z</time>
      </trkpt>
      <trkpt lat="46.43377" lon="2.25294">
        <ele>418</ele>
        <time>2025-08-07T13:30:01.000Z</time>
      </trkpt>
      <trkpt lat="46.43427" lon="2.2532">
        <ele>417</ele>
        <time>2025-08-07T13:31:02.000Z</time>
      </trkpt>
      <trkpt lat="46.43491" lon="2.25335">
        <ele>417</ele>
        <time>2025-08-07T13:32:16.000Z</time>
      </trkpt>
      <trkpt lat="46.43512" lon="2.25351">
        <ele>417</ele>
        <time>2025-08-07T13:32:43.000Z</time>
      </trkpt>
      <trkpt lat="46.4353" lon="2.25366">
        <ele>416</ele>
        <time>2025-08-07T13:33:07.000Z</time>
      </trkpt>
      <trkpt lat="46.4353" lon="2.2538">
        <ele>416</ele>
        <time>2025-08-07T13:33:18.000Z</time>
      </trkpt>
      <trkpt lat="46.43523" lon="2.25395">
        <ele>416</ele>
        <time>2025-08-07T13:33:32.000Z</time>
      </trkpt>
      <trkpt lat="46.43574" lon="2.25381">
        <ele>414</ele>
        <time>2025-08-07T13:34:32.000Z</time>
      </trkpt>
      <trkpt lat="46.43614" lon="2.25386">
        <ele>409</ele>
        <time>2025-08-07T13:35:18.000Z</time>
      </trkpt>
      <trkpt lat="46.43649" lon="2.25396">
        <ele>407</ele>
        <time>2025-08-07T13:35:58.000Z</time>
      </trkpt>
      <trkpt lat="46.43683" lon="2.25401">
        <ele>405</ele>
        <time>2025-08-07T13:36:37.000Z</time>
      </trkpt>
      <trkpt lat="46.43739" lon="2.25403">
        <ele>404</ele>
        <time>2025-08-07T13:37:41.000Z</time>
      </trkpt>
      <trkpt lat="46.43778" lon="2.25406">
        <ele>403</ele>
        <time>2025-08-07T13:38:27.000Z</time>
      </trkpt>
      <trkpt lat="46.43791" lon="2.25412">
        <ele>403</ele>
        <time>2025-08-07T13:38:42.000Z</time>
      </trkpt>
      <trkpt lat="46.43811" lon="2.25453">
        <ele>403</ele>
        <time>2025-08-07T13:39:21.000Z</time>
      </trkpt>
      <trkpt lat="46.43835" lon="2.25485">
        <ele>401</ele>
        <time>2025-08-07T13:39:58.000Z</time>
      </trkpt>
      <trkpt lat="46.43858" lon="2.25512">
        <ele>400</ele>
        <time>2025-08-07T13:40:32.000Z</time>
      </trkpt>
      <trkpt lat="46.43888" lon="2.25533">
        <ele>398</ele>
        <time>2025-08-07T13:41:10.000Z</time>
      </trkpt>
      <trkpt lat="46.43917" lon="2.2555">
        <ele>397</ele>
        <time>2025-08-07T13:41:46.000Z</time>
      </trkpt>
      <trkpt lat="46.43932" lon="2.25565">
        <ele>397</ele>
        <time>2025-08-07T13:42:07.000Z</time>
      </trkpt>
      <trkpt lat="46.43958" lon="2.25588">
        <ele>396</ele>
        <time>2025-08-07T13:42:42.000Z</time>
      </trkpt>
      <trkpt lat="46.44041" lon="2.25651">
        <ele>394</ele>
        <time>2025-08-07T13:44:29.000Z</time>
      </trkpt>
      <trkpt lat="46.44083" lon="2.25684">
        <ele>392</ele>
        <time>2025-08-07T13:45:24.000Z</time>
      </trkpt>
      <trkpt lat="46.44115" lon="2.25703">
        <ele>391</ele>
        <time>2025-08-07T13:46:03.000Z</time>
      </trkpt>
      <trkpt lat="46.44142" lon="2.25718">
        <ele>389</ele>
        <time>2025-08-07T13:46:36.000Z</time>
      </trkpt>
      <trkpt lat="46.44185" lon="2.25727">
        <ele>387</ele>
        <time>2025-08-07T13:47:26.000Z</time>
      </trkpt>
      <trkpt lat="46.44218" lon="2.25745">
        <ele>386</ele>
        <time>2025-08-07T13:48:06.000Z</time>
      </trkpt>
      <trkpt lat="46.4424" lon="2.25762">
        <ele>386</ele>
        <time>2025-08-07T13:48:35.000Z</time>
      </trkpt>
      <trkpt lat="46.44283" lon="2.25787">
        <ele>385</ele>
        <time>2025-08-07T13:49:28.000Z</time>
      </trkpt>
      <trkpt lat="46.44343" lon="2.25822">
        <ele>382</ele>
        <time>2025-08-07T13:50:43.000Z</time>
      </trkpt>
      <trkpt lat="46.44384" lon="2.25855">
        <ele>378</ele>
        <time>2025-08-07T13:51:36.000Z</time>
      </trkpt>
      <trkpt lat="46.44426" lon="2.25897">
        <ele>374</ele>
        <time>2025-08-07T13:52:35.000Z</time>
      </trkpt>
      <trkpt lat="46.44508" lon="2.25974">
        <ele>368</ele>
        <time>2025-08-07T13:54:27.000Z</time>
      </trkpt>
      <trkpt lat="46.44536" lon="2.25995">
        <ele>365</ele>
        <time>2025-08-07T13:55:03.000Z</time>
      </trkpt>
      <trkpt lat="46.44563" lon="2.26019">
        <ele>361</ele>
        <time>2025-08-07T13:55:39.000Z</time>
      </trkpt>
      <trkpt lat="46.44572" lon="2.26021">
        <ele>360</ele>
        <time>2025-08-07T13:55:49.000Z</time>
      </trkpt>
      <trkpt lat="46.44587" lon="2.26021">
        <ele>359</ele>
        <time>2025-08-07T13:56:06.000Z</time>
      </trkpt>
      <trkpt lat="46.446" lon="2.26029">
        <ele>358</ele>
        <time>2025-08-07T13:56:22.000Z</time>
      </trkpt>
      <trkpt lat="46.44607" lon="2.26042">
        <ele>358</ele>
        <time>2025-08-07T13:56:35.000Z</time>
      </trkpt>
      <trkpt lat="46.446" lon="2.26064">
        <ele>358</ele>
        <time>2025-08-07T13:56:54.000Z</time>
      </trkpt>
      <trkpt lat="46.44604" lon="2.26082">
        <ele>358</ele>
        <time>2025-08-07T13:57:09.000Z</time>
      </trkpt>
      <trkpt lat="46.44615" lon="2.26099">
        <ele>358</ele>
        <time>2025-08-07T13:57:27.000Z</time>
      </trkpt>
      <trkpt lat="46.44632" lon="2.26124">
        <ele>356</ele>
        <time>2025-08-07T13:57:55.000Z</time>
      </trkpt>
      <trkpt lat="46.44639" lon="2.26124">
        <ele>355</ele>
        <time>2025-08-07T13:58:03.000Z</time>
      </trkpt>
      <trkpt lat="46.44683" lon="2.26148">
        <ele>354</ele>
        <time>2025-08-07T13:58:56.000Z</time>
      </trkpt>
      <trkpt lat="46.44731" lon="2.262">
        <ele>358</ele>
        <time>2025-08-07T14:00:46.000Z</time>
      </trkpt>
      <trkpt lat="46.44743" lon="2.26205">
        <ele>359</ele>
        <time>2025-08-07T14:01:10.000Z</time>
      </trkpt>
      <trkpt lat="46.44767" lon="2.26198">
        <ele>362</ele>
        <time>2025-08-07T14:02:10.000Z</time>
      </trkpt>
      <trkpt lat="46.44865" lon="2.26199">
        <ele>368</ele>
        <time>2025-08-07T14:05:03.000Z</time>
      </trkpt>
      <trkpt lat="46.44949" lon="2.26191">
        <ele>373</ele>
        <time>2025-08-07T14:07:31.000Z</time>
      </trkpt>
      <trkpt lat="46.45078" lon="2.26214">
        <ele>374</ele>
        <time>2025-08-07T14:10:10.000Z</time>
      </trkpt>
      <trkpt lat="46.45125" lon="2.26218">
        <ele>374</ele>
        <time>2025-08-07T14:11:05.000Z</time>
      </trkpt>
      <trkpt lat="46.45192" lon="2.26235">
        <ele>374</ele>
        <time>2025-08-07T14:12:22.000Z</time>
      </trkpt>
      <trkpt lat="46.45235" lon="2.26243">
        <ele>373</ele>
        <time>2025-08-07T14:13:12.000Z</time>
      </trkpt>
      <trkpt lat="46.45287" lon="2.26273">
        <ele>370</ele>
        <time>2025-08-07T14:14:16.000Z</time>
      </trkpt>
      <trkpt lat="46.45325" lon="2.26303">
        <ele>366</ele>
        <time>2025-08-07T14:15:05.000Z</time>
      </trkpt>
      <trkpt lat="46.45369" lon="2.26323">
        <ele>364</ele>
        <time>2025-08-07T14:15:58.000Z</time>
      </trkpt>
      <trkpt lat="46.454" lon="2.26348">
        <ele>361</ele>
        <time>2025-08-07T14:16:40.000Z</time>
      </trkpt>
      <trkpt lat="46.45442" lon="2.26384">
        <ele>358</ele>
        <time>2025-08-07T14:17:36.000Z</time>
      </trkpt>
      <trkpt lat="46.45499" lon="2.26418">
        <ele>352</ele>
        <time>2025-08-07T14:18:46.000Z</time>
      </trkpt>
      <trkpt lat="46.45518" lon="2.26426">
        <ele>350</ele>
        <time>2025-08-07T14:19:09.000Z</time>
      </trkpt>
      <trkpt lat="46.45528" lon="2.26435">
        <ele>349</ele>
        <time>2025-08-07T14:19:23.000Z</time>
      </trkpt>
      <trkpt lat="46.45543" lon="2.26459">
        <ele>348</ele>
        <time>2025-08-07T14:19:48.000Z</time>
      </trkpt>
      <trkpt lat="46.45569" lon="2.26476">
        <ele>345</ele>
        <time>2025-08-07T14:20:21.000Z</time>
      </trkpt>
      <trkpt lat="46.45591" lon="2.26483">
        <ele>344</ele>
        <time>2025-08-07T14:20:47.000Z</time>
      </trkpt>
      <trkpt lat="46.45623" lon="2.26484">
        <ele>348</ele>
        <time>2025-08-07T14:22:05.000Z</time>
      </trkpt>
      <trkpt lat="46.45743" lon="2.26478">
        <ele>357</ele>
        <time>2025-08-07T14:25:55.000Z</time>
      </trkpt>
      <trkpt lat="46.45828" lon="2.26452">
        <ele>361</ele>
        <time>2025-08-07T14:28:16.000Z</time>
      </trkpt>
      <trkpt lat="46.45849" lon="2.26448">
        <ele>361</ele>
        <time>2025-08-07T14:28:41.000Z</time>
      </trkpt>
      <trkpt lat="46.45872" lon="2.26451">
        <ele>361</ele>
        <time>2025-08-07T14:29:06.000Z</time>
      </trkpt>
      <trkpt lat="46.45934" lon="2.26451">
        <ele>361</ele>
        <time>2025-08-07T14:30:17.000Z</time>
      </trkpt>
      <trkpt lat="46.45958" lon="2.26443">
        <ele>361</ele>
        <time>2025-08-07T14:30:46.000Z</time>
      </trkpt>
      <trkpt lat="46.4598" lon="2.26429">
        <ele>361</ele>
        <time>2025-08-07T14:31:13.000Z</time>
      </trkpt>
      <trkpt lat="46.45998" lon="2.26425">
        <ele>362</ele>
        <time>2025-08-07T14:31:44.000Z</time>
      </trkpt>
      <trkpt lat="46.46012" lon="2.26427">
        <ele>362</ele>
        <time>2025-08-07T14:32:00.000Z</time>
      </trkpt>
      <trkpt lat="46.46046" lon="2.26444">
        <ele>364</ele>
        <time>2025-08-07T14:33:02.000Z</time>
      </trkpt>
      <trkpt lat="46.46061" lon="2.26455">
        <ele>365</ele>
        <time>2025-08-07T14:33:32.000Z</time>
      </trkpt>
      <trkpt lat="46.46073" lon="2.26468">
        <ele>364</ele>
        <time>2025-08-07T14:33:48.000Z</time>
      </trkpt>
      <trkpt lat="46.46097" lon="2.2652">
        <ele>366</ele>
        <time>2025-08-07T14:34:58.000Z</time>
      </trkpt>
      <trkpt lat="46.46121" lon="2.26575">
        <ele>367</ele>
        <time>2025-08-07T14:36:01.000Z</time>
      </trkpt>
      <trkpt lat="46.46132" lon="2.26604">
        <ele>368</ele>
        <time>2025-08-07T14:36:37.000Z</time>
      </trkpt>
      <trkpt lat="46.46155" lon="2.26703">
        <ele>367</ele>
        <time>2025-08-07T14:38:00.000Z</time>
      </trkpt>
      <trkpt lat="46.46169" lon="2.26748">
        <ele>366</ele>
        <time>2025-08-07T14:38:38.000Z</time>
      </trkpt>
      <trkpt lat="46.46191" lon="2.26807">
        <ele>363</ele>
        <time>2025-08-07T14:39:31.000Z</time>
      </trkpt>
      <trkpt lat="46.4621" lon="2.2689">
        <ele>361</ele>
        <time>2025-08-07T14:40:40.000Z</time>
      </trkpt>
      <trkpt lat="46.46215" lon="2.26925">
        <ele>360</ele>
        <time>2025-08-07T14:41:08.000Z</time>
      </trkpt>
      <trkpt lat="46.46229" lon="2.26979">
        <ele>360</ele>
        <time>2025-08-07T14:41:54.000Z</time>
      </trkpt>
      <trkpt lat="46.46241" lon="2.2703">
        <ele>360</ele>
        <time>2025-08-07T14:42:36.000Z</time>
      </trkpt>
      <trkpt lat="46.46258" lon="2.27083">
        <ele>360</ele>
        <time>2025-08-07T14:43:23.000Z</time>
      </trkpt>
      <trkpt lat="46.46281" lon="2.27131">
        <ele>359</ele>
        <time>2025-08-07T14:44:09.000Z</time>
      </trkpt>
      <trkpt lat="46.46306" lon="2.2716">
        <ele>358</ele>
        <time>2025-08-07T14:44:45.000Z</time>
      </trkpt>
      <trkpt lat="46.46343" lon="2.272">
        <ele>357</ele>
        <time>2025-08-07T14:45:39.000Z</time>
      </trkpt>
      <trkpt lat="46.46421" lon="2.27264">
        <ele>357</ele>
        <time>2025-08-07T14:47:21.000Z</time>
      </trkpt>
      <trkpt lat="46.46502" lon="2.27319">
        <ele>355</ele>
        <time>2025-08-07T14:49:03.000Z</time>
      </trkpt>
      <trkpt lat="46.46521" lon="2.27335">
        <ele>354</ele>
        <time>2025-08-07T14:49:29.000Z</time>
      </trkpt>
      <trkpt lat="46.46559" lon="2.27378">
        <ele>352</ele>
        <time>2025-08-07T14:50:24.000Z</time>
      </trkpt>
      <trkpt lat="46.46585" lon="2.27412">
        <ele>351</ele>
        <time>2025-08-07T14:51:04.000Z</time>
      </trkpt>
      <trkpt lat="46.46618" lon="2.27469">
        <ele>350</ele>
        <time>2025-08-07T14:52:02.000Z</time>
      </trkpt>
      <trkpt lat="46.46642" lon="2.27518">
        <ele>348</ele>
        <time>2025-08-07T14:52:50.000Z</time>
      </trkpt>
      <trkpt lat="46.46716" lon="2.27687">
        <ele>341</ele>
        <time>2025-08-07T14:55:28.000Z</time>
      </trkpt>
      <trkpt lat="46.46754" lon="2.27769">
        <ele>337</ele>
        <time>2025-08-07T14:56:46.000Z</time>
      </trkpt>
      <trkpt lat="46.46761" lon="2.27806">
        <ele>335</ele>
        <time>2025-08-07T14:57:16.000Z</time>
      </trkpt>
      <trkpt lat="46.46773" lon="2.27874">
        <ele>331</ele>
        <time>2025-08-07T14:58:11.000Z</time>
      </trkpt>
      <trkpt lat="46.46777" lon="2.27891">
        <ele>330</ele>
        <time>2025-08-07T14:58:25.000Z</time>
      </trkpt>
      <trkpt lat="46.46784" lon="2.27915">
        <ele>329</ele>
        <time>2025-08-07T14:58:46.000Z</time>
      </trkpt>
      <trkpt lat="46.46783" lon="2.27935">
        <ele>328</ele>
        <time>2025-08-07T14:59:02.000Z</time>
      </trkpt>
      <trkpt lat="46.46779" lon="2.27947">
        <ele>328</ele>
        <time>2025-08-07T14:59:12.000Z</time>
      </trkpt>
      <trkpt lat="46.46773" lon="2.27985">
        <ele>326</ele>
        <time>2025-08-07T14:59:42.000Z</time>
      </trkpt>
      <trkpt lat="46.46776" lon="2.28006">
        <ele>324</ele>
        <time>2025-08-07T14:59:59.000Z</time>
      </trkpt>
      <trkpt lat="46.46784" lon="2.28019">
        <ele>322</ele>
        <time>2025-08-07T15:00:13.000Z</time>
      </trkpt>
      <trkpt lat="46.46792" lon="2.28023">
        <ele>321</ele>
        <time>2025-08-07T15:00:22.000Z</time>
      </trkpt>
      <trkpt lat="46.468" lon="2.28028">
        <ele>320</ele>
        <time>2025-08-07T15:00:32.000Z</time>
      </trkpt>
      <trkpt lat="46.46819" lon="2.28021">
        <ele>320</ele>
        <time>2025-08-07T15:00:54.000Z</time>
      </trkpt>
      <trkpt lat="46.46819" lon="2.28029">
        <ele>319</ele>
        <time>2025-08-07T15:01:01.000Z</time>
      </trkpt>
      <trkpt lat="46.46802" lon="2.28063">
        <ele>317</ele>
        <time>2025-08-07T15:01:35.000Z</time>
      </trkpt>
      <trkpt lat="46.46795" lon="2.2808">
        <ele>317</ele>
        <time>2025-08-07T15:01:50.000Z</time>
      </trkpt>
      <trkpt lat="46.46812" lon="2.28097">
        <ele>316</ele>
        <time>2025-08-07T15:02:13.000Z</time>
      </trkpt>
      <trkpt lat="46.4683" lon="2.28101">
        <ele>316</ele>
        <time>2025-08-07T15:02:34.000Z</time>
      </trkpt>
      <trkpt lat="46.46843" lon="2.28116">
        <ele>316</ele>
        <time>2025-08-07T15:02:54.000Z</time>
      </trkpt>
      <trkpt lat="46.46856" lon="2.28117">
        <ele>317</ele>
        <time>2025-08-07T15:03:18.000Z</time>
      </trkpt>
      <trkpt lat="46.46861" lon="2.2812">
        <ele>318</ele>
        <time>2025-08-07T15:03:35.000Z</time>
      </trkpt>
      <trkpt lat="46.46876" lon="2.28159">
        <ele>318</ele>
        <time>2025-08-07T15:04:10.000Z</time>
      </trkpt>
      <trkpt lat="46.46878" lon="2.2817">
        <ele>318</ele>
        <time>2025-08-07T15:04:19.000Z</time>
      </trkpt>
      <trkpt lat="46.46885" lon="2.28178">
        <ele>319</ele>
        <time>2025-08-07T15:04:39.000Z</time>
      </trkpt>
      <trkpt lat="46.46914" lon="2.28254">
        <ele>320</ele>
        <time>2025-08-07T15:05:58.000Z</time>
      </trkpt>
      <trkpt lat="46.46972" lon="2.2833">
        <ele>318</ele>
        <time>2025-08-07T15:07:27.000Z</time>
      </trkpt>
      <trkpt lat="46.46996" lon="2.28348">
        <ele>321</ele>
        <time>2025-08-07T15:08:29.000Z</time>
      </trkpt>
      <trkpt lat="46.47015" lon="2.28367">
        <ele>320</ele>
        <time>2025-08-07T15:08:55.000Z</time>
      </trkpt>
      <trkpt lat="46.47016" lon="2.28378">
        <ele>318</ele>
        <time>2025-08-07T15:09:04.000Z</time>
      </trkpt>
      <trkpt lat="46.47021" lon="2.28391">
        <ele>316</ele>
        <time>2025-08-07T15:09:16.000Z</time>
      </trkpt>
      <trkpt lat="46.47037" lon="2.28415">
        <ele>316</ele>
        <time>2025-08-07T15:09:42.000Z</time>
      </trkpt>
      <trkpt lat="46.47042" lon="2.28431">
        <ele>316</ele>
        <time>2025-08-07T15:09:56.000Z</time>
      </trkpt>
      <trkpt lat="46.47045" lon="2.28451">
        <ele>315</ele>
        <time>2025-08-07T15:10:12.000Z</time>
      </trkpt>
      <trkpt lat="46.47067" lon="2.28516">
        <ele>314</ele>
        <time>2025-08-07T15:11:09.000Z</time>
      </trkpt>
      <trkpt lat="46.47074" lon="2.28534">
        <ele>315</ele>
        <time>2025-08-07T15:11:35.000Z</time>
      </trkpt>
      <trkpt lat="46.47104" lon="2.28568">
        <ele>314</ele>
        <time>2025-08-07T15:12:19.000Z</time>
      </trkpt>
      <trkpt lat="46.47129" lon="2.28582">
        <ele>313</ele>
        <time>2025-08-07T15:12:50.000Z</time>
      </trkpt>
      <trkpt lat="46.4716" lon="2.28567">
        <ele>317</ele>
        <time>2025-08-07T15:14:09.000Z</time>
      </trkpt>
      <trkpt lat="46.47194" lon="2.28563">
        <ele>319</ele>
        <time>2025-08-07T15:15:09.000Z</time>
      </trkpt>
      <trkpt lat="46.47213" lon="2.28572">
        <ele>321</ele>
        <time>2025-08-07T15:15:52.000Z</time>
      </trkpt>
      <trkpt lat="46.47242" lon="2.28599">
        <ele>325</ele>
        <time>2025-08-07T15:17:13.000Z</time>
      </trkpt>
      <trkpt lat="46.47322" lon="2.28651">
        <ele>331</ele>
        <time>2025-08-07T15:19:56.000Z</time>
      </trkpt>
      <trkpt lat="46.47344" lon="2.2867">
        <ele>332</ele>
        <time>2025-08-07T15:20:35.000Z</time>
      </trkpt>
      <trkpt lat="46.47384" lon="2.28718">
        <ele>334</ele>
        <time>2025-08-07T15:21:55.000Z</time>
      </trkpt>
      <trkpt lat="46.47426" lon="2.28731">
        <ele>335</ele>
        <time>2025-08-07T15:22:55.000Z</time>
      </trkpt>
      <trkpt lat="46.47483" lon="2.28724">
        <ele>337</ele>
        <time>2025-08-07T15:24:20.000Z</time>
      </trkpt>
      <trkpt lat="46.47565" lon="2.28727">
        <ele>341</ele>
        <time>2025-08-07T15:26:36.000Z</time>
      </trkpt>
      <trkpt lat="46.47616" lon="2.28737">
        <ele>344</ele>
        <time>2025-08-07T15:28:05.000Z</time>
      </trkpt>
      <trkpt lat="46.47689" lon="2.28773">
        <ele>346</ele>
        <time>2025-08-07T15:29:54.000Z</time>
      </trkpt>
      <trkpt lat="46.47761" lon="2.28794">
        <ele>349</ele>
        <time>2025-08-07T15:31:49.000Z</time>
      </trkpt>
      <trkpt lat="46.47805" lon="2.28788">
        <ele>349</ele>
        <time>2025-08-07T15:32:40.000Z</time>
      </trkpt>
      <trkpt lat="46.47887" lon="2.28757">
        <ele>351</ele>
        <time>2025-08-07T15:34:38.000Z</time>
      </trkpt>
      <trkpt lat="46.47904" lon="2.28754">
        <ele>351</ele>
        <time>2025-08-07T15:34:58.000Z</time>
      </trkpt>
      <trkpt lat="46.47986" lon="2.28764">
        <ele>350</ele>
        <time>2025-08-07T15:36:32.000Z</time>
      </trkpt>
      <trkpt lat="46.48026" lon="2.28767">
        <ele>348</ele>
        <time>2025-08-07T15:37:18.000Z</time>
      </trkpt>
      <trkpt lat="46.48071" lon="2.28763">
        <ele>347</ele>
        <time>2025-08-07T15:38:09.000Z</time>
      </trkpt>
      <trkpt lat="46.48097" lon="2.2881">
        <ele>346</ele>
        <time>2025-08-07T15:38:56.000Z</time>
      </trkpt>
      <trkpt lat="46.48113" lon="2.28851">
        <ele>347</ele>
        <time>2025-08-07T15:39:44.000Z</time>
      </trkpt>
      <trkpt lat="46.48119" lon="2.28898">
        <ele>348</ele>
        <time>2025-08-07T15:40:32.000Z</time>
      </trkpt>
      <trkpt lat="46.48126" lon="2.28922">
        <ele>348</ele>
        <time>2025-08-07T15:40:52.000Z</time>
      </trkpt>
      <trkpt lat="46.48155" lon="2.28957">
        <ele>347</ele>
        <time>2025-08-07T15:41:35.000Z</time>
      </trkpt>
      <trkpt lat="46.48173" lon="2.28991">
        <ele>347</ele>
        <time>2025-08-07T15:42:09.000Z</time>
      </trkpt>
      <trkpt lat="46.48192" lon="2.29051">
        <ele>347</ele>
        <time>2025-08-07T15:43:01.000Z</time>
      </trkpt>
      <trkpt lat="46.48206" lon="2.29056">
        <ele>346</ele>
        <time>2025-08-07T15:43:17.000Z</time>
      </trkpt>
      <trkpt lat="46.48227" lon="2.29075">
        <ele>345</ele>
        <time>2025-08-07T15:43:46.000Z</time>
      </trkpt>
      <trkpt lat="46.48253" lon="2.29111">
        <ele>344</ele>
        <time>2025-08-07T15:44:27.000Z</time>
      </trkpt>
      <trkpt lat="46.48276" lon="2.29141">
        <ele>343</ele>
        <time>2025-08-07T15:45:02.000Z</time>
      </trkpt>
      <trkpt lat="46.48297" lon="2.29177">
        <ele>342</ele>
        <time>2025-08-07T15:45:40.000Z</time>
      </trkpt>
      <trkpt lat="46.48313" lon="2.29216">
        <ele>341</ele>
        <time>2025-08-07T15:46:15.000Z</time>
      </trkpt>
      <trkpt lat="46.48338" lon="2.29309">
        <ele>336</ele>
        <time>2025-08-07T15:47:33.000Z</time>
      </trkpt>
      <trkpt lat="46.48348" lon="2.29342">
        <ele>334</ele>
        <time>2025-08-07T15:48:02.000Z</time>
      </trkpt>
      <trkpt lat="46.48409" lon="2.29452">
        <ele>330</ele>
        <time>2025-08-07T15:49:53.000Z</time>
      </trkpt>
      <trkpt lat="46.48453" lon="2.29546">
        <ele>327</ele>
        <time>2025-08-07T15:51:22.000Z</time>
      </trkpt>
      <trkpt lat="46.48484" lon="2.29615">
        <ele>323</ele>
        <time>2025-08-07T15:52:27.000Z</time>
      </trkpt>
      <trkpt lat="46.48504" lon="2.29653">
        <ele>319</ele>
        <time>2025-08-07T15:53:04.000Z</time>
      </trkpt>
      <trkpt lat="46.48524" lon="2.29683">
        <ele>313</ele>
        <time>2025-08-07T15:53:38.000Z</time>
      </trkpt>
      <trkpt lat="46.48527" lon="2.29697">
        <ele>312</ele>
        <time>2025-08-07T15:53:49.000Z</time>
      </trkpt>
      <trkpt lat="46.48486" lon="2.29739">
        <ele>313</ele>
        <time>2025-08-07T15:54:57.000Z</time>
      </trkpt>
      <trkpt lat="46.48415" lon="2.29784">
        <ele>309</ele>
        <time>2025-08-07T15:56:25.000Z</time>
      </trkpt>
      <trkpt lat="46.48393" lon="2.298">
        <ele>307</ele>
        <time>2025-08-07T15:56:53.000Z</time>
      </trkpt>
      <trkpt lat="46.48364" lon="2.29809">
        <ele>307</ele>
        <time>2025-08-07T15:57:28.000Z</time>
      </trkpt>
      <trkpt lat="46.48355" lon="2.29834">
        <ele>303</ele>
        <time>2025-08-07T15:57:50.000Z</time>
      </trkpt>
      <trkpt lat="46.48326" lon="2.29837">
        <ele>303</ele>
        <time>2025-08-07T15:58:24.000Z</time>
      </trkpt>
      <trkpt lat="46.48285" lon="2.29851">
        <ele>297</ele>
        <time>2025-08-07T15:59:12.000Z</time>
      </trkpt>
      <trkpt lat="46.4826" lon="2.29857">
        <ele>294</ele>
        <time>2025-08-07T15:59:42.000Z</time>
      </trkpt>
      <trkpt lat="46.4825" lon="2.29861">
        <ele>294</ele>
        <time>2025-08-07T15:59:53.000Z</time>
      </trkpt>
      <trkpt lat="46.4825" lon="2.29872">
        <ele>293</ele>
        <time>2025-08-07T16:00:02.000Z</time>
      </trkpt>
      <trkpt lat="46.48254" lon="2.29897">
        <ele>295</ele>
        <time>2025-08-07T16:00:43.000Z</time>
      </trkpt>
      <trkpt lat="46.48264" lon="2.2991">
        <ele>295</ele>
        <time>2025-08-07T16:00:58.000Z</time>
      </trkpt>
      <trkpt lat="46.48271" lon="2.29927">
        <ele>296</ele>
        <time>2025-08-07T16:01:24.000Z</time>
      </trkpt>
      <trkpt lat="46.4835" lon="2.29956">
        <ele>294</ele>
        <time>2025-08-07T16:02:56.000Z</time>
      </trkpt>
      <trkpt lat="46.48411" lon="2.29996">
        <ele>296</ele>
        <time>2025-08-07T16:04:33.000Z</time>
      </trkpt>
      <trkpt lat="46.4843" lon="2.30009">
        <ele>299</ele>
        <time>2025-08-07T16:05:28.000Z</time>
      </trkpt>
      <trkpt lat="46.48474" lon="2.30064">
        <ele>308</ele>
        <time>2025-08-07T16:08:08.000Z</time>
      </trkpt>
      <trkpt lat="46.48478" lon="2.30077">
        <ele>309</ele>
        <time>2025-08-07T16:08:29.000Z</time>
      </trkpt>
      <trkpt lat="46.4848" lon="2.30102">
        <ele>312</ele>
        <time>2025-08-07T16:09:20.000Z</time>
      </trkpt>
      <trkpt lat="46.48472" lon="2.30104">
        <ele>311</ele>
        <time>2025-08-07T16:09:29.000Z</time>
      </trkpt>
      <trkpt lat="46.48467" lon="2.3011">
        <ele>312</ele>
        <time>2025-08-07T16:09:47.000Z</time>
      </trkpt>
      <trkpt lat="46.4846" lon="2.30132">
        <ele>315</ele>
        <time>2025-08-07T16:10:37.000Z</time>
      </trkpt>
      <trkpt lat="46.48449" lon="2.3018">
        <ele>318</ele>
        <time>2025-08-07T16:11:48.000Z</time>
      </trkpt>
      <trkpt lat="46.48444" lon="2.30217">
        <ele>320</ele>
        <time>2025-08-07T16:12:38.000Z</time>
      </trkpt>
      <trkpt lat="46.48444" lon="2.30271">
        <ele>323</ele>
        <time>2025-08-07T16:13:52.000Z</time>
      </trkpt>
      <trkpt lat="46.48438" lon="2.30356">
        <ele>327</ele>
        <time>2025-08-07T16:15:41.000Z</time>
      </trkpt>
      <trkpt lat="46.4843" lon="2.30427">
        <ele>330</ele>
        <time>2025-08-07T16:17:08.000Z</time>
      </trkpt>
      <trkpt lat="46.48428" lon="2.30496">
        <ele>334</ele>
        <time>2025-08-07T16:18:44.000Z</time>
      </trkpt>
      <trkpt lat="46.48435" lon="2.30577">
        <ele>339</ele>
        <time>2025-08-07T16:20:40.000Z</time>
      </trkpt>
      <trkpt lat="46.48441" lon="2.30653">
        <ele>342</ele>
        <time>2025-08-07T16:22:11.000Z</time>
      </trkpt>
      <trkpt lat="46.48434" lon="2.30709">
        <ele>342</ele>
        <time>2025-08-07T16:22:55.000Z</time>
      </trkpt>
      <trkpt lat="46.48426" lon="2.30767">
        <ele>345</ele>
        <time>2025-08-07T16:24:13.000Z</time>
      </trkpt>
      <trkpt lat="46.48386" lon="2.3085">
        <ele>347</ele>
        <time>2025-08-07T16:25:53.000Z</time>
      </trkpt>
      <trkpt lat="46.48368" lon="2.309">
        <ele>347</ele>
        <time>2025-08-07T16:26:38.000Z</time>
      </trkpt>
      <trkpt lat="46.4834" lon="2.31009">
        <ele>347</ele>
        <time>2025-08-07T16:28:10.000Z</time>
      </trkpt>
      <trkpt lat="46.48367" lon="2.31012">
        <ele>348</ele>
        <time>2025-08-07T16:28:51.000Z</time>
      </trkpt>
      <trkpt lat="46.48449" lon="2.31043">
        <ele>348</ele>
        <time>2025-08-07T16:30:29.000Z</time>
      </trkpt>
      <trkpt lat="46.48581" lon="2.3112">
        <ele>345</ele>
        <time>2025-08-07T16:33:11.000Z</time>
      </trkpt>
    </trkseg>
  </trk>
</gpx>